Budapest, Hungary

11:27 AM CET on February 12, 2016 (GMT +0100)
IBUDAPES25 | | Change Station
CLOSE
Current Station
Personal Weather Station
Location: Budapest, VIII. Jozsefvaros, Budapest
Elevation: 374 ft
Nearby Weather Stations

Elev 374 ft 47.49 °N, 19.07 °E | Updated 7 seconds ago

Clear
Clear
46.9 °F
Feels Like 45 °F
N
4.3
Wind Variable Wind from South
Gusts 4.3 mph

Today
High -- | Low -- °F
--% Chance of Precip.
Yesterday
High -- | Low -- °F
Precip. -- in
Pressure 29.80 in
Visibility -9999.0 miles
Clouds
Windchill 45 °F
Dew Point 33 °F
Humidity 58%
Rainfall 0.00 in
Snow Depth Not available.
6:55 AM 5:01 PM
Waxing Crescent, 19% visible
METAR LHBP 121000Z 12007KT 090V150 CAVOK 08/01 Q1009 NOSIG
Pressure 29.80 in
Visibility -9999.0 miles
Clouds
Windchill 45 °F
Dew Point 33 °F
Humidity 58%
Rainfall 0.00 in
Snow Depth Not available.
6:55 AM 5:01 PM
Waxing Crescent, 19% visible
METAR LHBP 121000Z 12007KT 090V150 CAVOK 08/01 Q1009 NOSIG

10-Day Weather Forecast

Almanac

Astronomy

Feb. 12, 2016 Rise Set
Actual Time
Civil Twilight
Nautical Twilight
Astronomical Twilight
Moon
Length of Visible Light
Length of Day
Tomorrow will be .
, % of the Moon is Illuminated

Today's Extremes

Country Highs Country Lows

Community

WunderPhotos

Upload Photos

1,892,289 photos uploaded!

WunderBlog® & News

Nearby

Air Quality

  Air Quality AQ Index Pollutant
Not available.

Snow Depth

Station Depth Elevation

Earthquake Activity

City Distance Mag. Time & Date
Minimum magnitude displayed is 2.5.

Coastal Water Temperatures

Place Temperature

Stations

Nearby Weather Stations

Station Location Temp. Windchill Dew Point Humidity Wind Precip. Elev Updated Type